createdAt,value
2018-06-24T00:01:59.541Z,23.77
2018-06-24T00:04:27.540Z,11.07
2018-06-24T00:06:55.608Z,12.23
2018-06-24T00:09:24.341Z,20.97
2018-06-24T00:11:52.394Z,14.43
2018-06-24T00:14:20.475Z,15.27
2018-06-24T00:16:48.463Z,12.70
2018-06-24T00:19:16.472Z,15.67
2018-06-24T00:21:44.512Z,20.50
2018-06-24T00:24:12.561Z,12.07
2018-06-24T00:26:40.757Z,13.50
2018-06-24T00:29:08.748Z,11.60
2018-06-24T00:31:36.800Z,22.87
2018-06-24T00:34:04.797Z,16.63
2018-06-24T00:36:32.812Z,16.37
2018-06-24T00:39:00.813Z,12.20
2018-06-24T00:41:28.807Z,17.00
2018-06-24T00:43:56.821Z,16.43
2018-06-24T00:46:24.992Z,17.53
2018-06-24T00:48:52.993Z,15.23
2018-06-24T00:51:21.049Z,15.53
2018-06-24T00:53:49.036Z,7.23
2018-06-24T00:56:17.049Z,11.77
2018-06-24T00:58:45.089Z,13.17
2018-06-24T01:01:13.124Z,10.40
2018-06-24T01:03:41.891Z,8.83
2018-06-24T01:06:09.909Z,14.50
2018-06-24T01:08:37.920Z,18.23
2018-06-24T01:11:05.972Z,15.43
2018-06-24T01:13:34.044Z,11.13
2018-06-24T01:16:02.068Z,10.33
2018-06-24T01:18:30.114Z,11.83
2018-06-24T01:20:58.093Z,10.97
2018-06-24T01:23:26.084Z,8.20
2018-06-24T01:25:54.085Z,8.57
2018-06-24T01:28:22.080Z,9.83
2018-06-24T01:30:50.141Z,12.87
2018-06-24T01:33:18.177Z,12.67
2018-06-24T01:35:46.229Z,12.97
2018-06-24T01:38:14.208Z,15.47
2018-06-24T01:40:42.204Z,18.07
2018-06-24T01:43:10.222Z,14.57
2018-06-24T01:45:38.237Z,20.90
2018-06-24T01:48:06.246Z,10.10
2018-06-24T01:50:34.260Z,11.37
2018-06-24T01:53:02.310Z,13.63
2018-06-24T01:55:30.288Z,16.33
2018-06-24T01:57:58.296Z,15.60
2018-06-24T02:00:26.282Z,14.27
2018-06-24T02:02:54.280Z,16.77
2018-06-24T02:07:46.265Z,13.47
2018-06-24T02:10:14.264Z,15.97
2018-06-24T02:12:42.376Z,9.97
2018-06-24T02:15:10.388Z,16.83
2018-06-24T02:17:38.428Z,13.67
2018-06-24T02:20:06.631Z,12.00
2018-06-24T02:22:34.680Z,16.43
2018-06-24T02:25:02.681Z,14.90
2018-06-24T02:27:30.688Z,12.33
2018-06-24T02:29:58.690Z,17.50
2018-06-24T02:32:26.677Z,18.37
2018-06-24T02:34:54.724Z,17.53
2018-06-24T02:37:22.713Z,31.93
2018-06-24T02:39:50.760Z,6.40
2018-06-24T02:42:18.757Z,17.43
2018-06-24T02:44:47.817Z,25.07
2018-06-24T02:47:15.838Z,13.43
2018-06-24T02:49:43.850Z,11.60
2018-06-24T02:52:11.866Z,21.63
2018-06-24T02:54:39.881Z,20.03
2018-06-24T02:57:07.885Z,17.23
2018-06-24T02:59:35.904Z,12.97
2018-06-24T03:02:03.911Z,11.30
2018-06-24T03:04:31.893Z,17.13
2018-06-24T03:06:59.914Z,15.23
2018-06-24T03:09:27.932Z,10.00
2018-06-24T03:11:55.929Z,11.90
2018-06-24T03:14:23.933Z,15.67
2018-06-24T03:16:51.942Z,16.53
2018-06-24T03:19:19.923Z,13.60
2018-06-24T03:21:47.915Z,16.87
2018-06-24T03:24:15.963Z,11.57
2018-06-24T03:26:43.990Z,14.13
2018-06-24T03:29:12.040Z,22.93
2018-06-24T03:31:40.058Z,16.33
2018-06-24T03:34:08.089Z,18.67
2018-06-24T03:36:36.090Z,14.60
2018-06-24T03:39:05.865Z,11.73
2018-06-24T03:41:33.900Z,18.53
2018-06-24T03:44:01.925Z,10.17
2018-06-24T03:46:29.916Z,20.10
2018-06-24T03:48:58.000Z,12.23
2018-06-24T03:51:26.116Z,15.70
2018-06-24T03:53:54.119Z,22.20
2018-06-24T03:56:22.119Z,19.97
2018-06-24T03:58:50.143Z,19.60
2018-06-24T04:01:18.127Z,14.93
2018-06-24T04:03:46.132Z,19.97
2018-06-24T04:06:14.143Z,17.23
2018-06-24T04:08:42.157Z,18.17
2018-06-24T04:11:10.168Z,26.73
2018-06-24T04:13:38.268Z,17.37
2018-06-24T04:16:07.033Z,10.47
2018-06-24T04:18:49.510Z,20.97
2018-06-24T04:21:17.533Z,22.17
2018-06-24T04:23:45.905Z,29.47
2018-06-24T04:26:14.526Z,29.37
2018-06-24T04:28:42.572Z,23.43
2018-06-24T04:31:11.533Z,22.53
2018-06-24T04:33:39.669Z,22.13
2018-06-24T04:36:07.705Z,24.90
2018-06-24T04:38:35.744Z,21.27
2018-06-24T04:41:03.771Z,20.83
2018-06-24T04:43:32.173Z,27.53
2018-06-24T04:46:00.844Z,17.90
2018-06-24T04:48:28.881Z,16.80
2018-06-24T04:50:56.893Z,24.03
2018-06-24T04:53:24.965Z,17.23
2018-06-24T04:55:53.081Z,17.03
2018-06-24T04:58:22.168Z,22.40
2018-06-24T05:00:51.140Z,11.30
2018-06-24T05:03:19.167Z,20.30
2018-06-24T05:05:47.190Z,18.23
2018-06-24T05:08:15.228Z,22.27
2018-06-24T05:10:43.512Z,18.40
2018-06-24T05:13:11.508Z,22.63
2018-06-24T05:15:39.517Z,31.83
2018-06-24T05:18:07.649Z,16.57
2018-06-24T05:20:36.138Z,19.80
2018-06-24T05:23:04.178Z,21.77
2018-06-24T05:25:32.173Z,27.90
2018-06-24T05:28:00.235Z,11.70
2018-06-24T05:30:28.252Z,23.03
2018-06-24T05:32:56.340Z,20.90
2018-06-24T05:35:24.352Z,18.17
2018-06-24T05:37:52.394Z,28.10
2018-06-24T05:40:20.338Z,22.97
2018-06-24T05:42:48.350Z,16.67
2018-06-24T05:45:16.385Z,22.13
2018-06-24T05:47:44.382Z,18.07
2018-06-24T05:50:27.229Z,24.43
2018-06-24T05:52:55.279Z,22.13
2018-06-24T05:55:23.368Z,24.17
2018-06-24T05:57:51.438Z,24.73
2018-06-24T06:00:19.470Z,28.63
2018-06-24T06:02:47.593Z,25.43
2018-06-24T06:05:15.581Z,23.63
2018-06-24T06:07:43.617Z,25.00
2018-06-24T06:10:11.632Z,20.30
2018-06-24T06:12:39.629Z,33.97
2018-06-24T06:15:07.648Z,16.27
2018-06-24T06:17:35.672Z,24.73
2018-06-24T06:20:04.060Z,16.50
2018-06-24T06:22:32.203Z,29.50
2018-06-24T06:25:00.246Z,20.27
2018-06-24T06:27:28.260Z,25.03
2018-06-24T06:29:56.356Z,18.30
2018-06-24T06:32:24.376Z,22.07
2018-06-24T06:34:52.353Z,17.03
2018-06-24T06:37:20.395Z,14.63
2018-06-24T06:39:48.449Z,18.57
2018-06-24T06:42:16.517Z,17.23
2018-06-24T06:44:44.684Z,21.40
2018-06-24T06:47:12.744Z,22.33
2018-06-24T06:49:40.935Z,18.67
2018-06-24T06:52:08.965Z,14.17
2018-06-24T06:54:37.480Z,14.07
2018-06-24T06:57:06.174Z,23.00
2018-06-24T06:59:34.321Z,15.43
2018-06-24T07:02:02.366Z,16.83
2018-06-24T07:04:30.366Z,15.60
2018-06-24T07:06:58.457Z,11.23
2018-06-24T07:09:26.556Z,16.97
2018-06-24T07:11:54.566Z,21.40
2018-06-24T07:14:22.627Z,22.27
2018-06-24T07:16:50.653Z,14.33
2018-06-24T07:19:18.677Z,23.83
2018-06-24T07:21:46.708Z,14.27
2018-06-24T07:24:14.692Z,13.13
2018-06-24T07:26:42.698Z,18.37
2018-06-24T07:29:10.712Z,17.07
2018-06-24T07:31:38.729Z,17.87
2018-06-24T07:34:06.980Z,15.97
2018-06-24T07:36:34.982Z,23.33
2018-06-24T07:39:03.107Z,22.50
2018-06-24T07:41:31.098Z,12.00
2018-06-24T07:43:59.104Z,19.43
2018-06-24T07:46:27.172Z,14.63
2018-06-24T07:48:55.292Z,13.70
2018-06-24T07:51:23.294Z,18.97
2018-06-24T07:53:51.292Z,16.20
2018-06-24T07:56:19.304Z,10.27
2018-06-24T07:58:47.315Z,24.13
2018-06-24T08:01:15.320Z,12.87
2018-06-24T08:03:43.340Z,18.30
2018-06-24T08:06:11.465Z,18.87
2018-06-24T08:08:39.485Z,13.20
2018-06-24T08:11:07.653Z,16.53
2018-06-24T08:13:35.833Z,16.23
2018-06-24T08:16:03.905Z,22.93
2018-06-24T08:18:31.893Z,20.43
2018-06-24T08:20:59.889Z,25.17
2018-06-24T08:23:27.912Z,14.97
2018-06-24T08:25:55.961Z,16.23
2018-06-24T08:28:24.072Z,17.90
2018-06-24T08:30:52.072Z,15.43
2018-06-24T08:33:20.069Z,19.77
2018-06-24T08:35:48.076Z,19.20
2018-06-24T08:38:16.085Z,9.97
2018-06-24T08:40:44.357Z,14.30
2018-06-24T08:43:12.356Z,11.63
2018-06-24T08:45:40.385Z,13.53
2018-06-24T08:48:08.418Z,11.90
2018-06-24T08:50:36.410Z,8.47
2018-06-24T08:53:04.433Z,11.40
2018-06-24T08:55:32.495Z,8.93
2018-06-24T08:58:00.500Z,14.40
2018-06-24T09:00:28.585Z,11.50
2018-06-24T09:02:56.581Z,10.70
2018-06-24T09:05:24.644Z,8.80
2018-06-24T09:07:52.989Z,7.93
2018-06-24T09:10:21.539Z,6.70
2018-06-24T09:12:49.676Z,4.70
2018-06-24T09:15:17.766Z,11.43
2018-06-24T09:17:46.021Z,10.83
2018-06-24T09:20:14.079Z,9.30
2018-06-24T09:22:42.068Z,7.60
2018-06-24T09:25:10.241Z,8.03
2018-06-24T09:27:38.290Z,15.27
2018-06-24T09:30:06.265Z,14.57
2018-06-24T09:32:34.252Z,12.63
2018-06-24T09:35:02.233Z,13.63
2018-06-24T09:37:30.244Z,9.90
2018-06-24T09:39:58.257Z,13.07
2018-06-24T09:42:26.284Z,8.83
2018-06-24T09:44:54.283Z,9.03
2018-06-24T09:47:22.301Z,8.50
2018-06-24T09:49:50.299Z,9.00
2018-06-24T09:52:18.360Z,6.73
2018-06-24T09:54:46.377Z,10.37
2018-06-24T09:57:14.365Z,11.37
2018-06-24T09:59:42.359Z,4.67
2018-06-24T10:02:10.411Z,10.00
2018-06-24T10:04:38.473Z,6.93
2018-06-24T10:07:06.477Z,8.00
2018-06-24T10:09:34.436Z,6.03
2018-06-24T10:12:02.425Z,7.30
2018-06-24T10:14:30.520Z,6.93
2018-06-24T10:16:58.527Z,8.27
2018-06-24T10:19:26.541Z,6.07
2018-06-24T10:21:54.609Z,6.43
2018-06-24T10:24:22.621Z,11.30
2018-06-24T10:26:50.617Z,7.13
2018-06-24T10:29:18.617Z,7.90
2018-06-24T10:31:46.590Z,9.70
2018-06-24T10:34:14.585Z,6.90
2018-06-24T10:36:42.579Z,10.77
2018-06-24T10:39:11.661Z,9.90
2018-06-24T10:41:39.757Z,5.73
2018-06-24T10:44:08.054Z,5.67
2018-06-24T10:46:36.024Z,6.27
2018-06-24T10:49:04.048Z,4.67
2018-06-24T10:51:32.092Z,4.30
2018-06-24T10:54:00.132Z,3.80
2018-06-24T10:56:28.191Z,4.70
2018-06-24T10:58:56.245Z,4.40
2018-06-24T11:01:24.255Z,4.00
2018-06-24T11:03:52.285Z,3.80
2018-06-24T11:06:20.455Z,5.10
2018-06-24T11:08:48.438Z,5.73
2018-06-24T11:11:16.437Z,3.97
2018-06-24T11:13:44.441Z,2.73
2018-06-24T11:16:12.454Z,2.57
2018-06-24T11:18:40.481Z,3.10
2018-06-24T11:21:08.476Z,2.40
2018-06-24T11:23:36.673Z,2.80
2018-06-24T11:26:04.676Z,1.57
2018-06-24T11:28:32.705Z,1.67
2018-06-24T11:31:00.746Z,2.13
2018-06-24T11:33:28.720Z,1.33
2018-06-24T11:35:56.719Z,1.33
2018-06-24T11:38:24.703Z,1.70
2018-06-24T11:40:52.693Z,1.50
2018-06-24T11:43:20.693Z,3.10
2018-06-24T11:45:48.689Z,2.40
2018-06-24T11:48:16.675Z,1.80
2018-06-24T11:50:44.641Z,2.10
2018-06-24T11:53:12.649Z,1.80
2018-06-24T11:55:40.645Z,6.70
2018-06-24T11:58:08.657Z,1.87
2018-06-24T12:00:36.770Z,1.90
2018-06-24T12:03:04.952Z,2.37
2018-06-24T12:05:32.998Z,5.03
2018-06-24T12:08:00.965Z,2.73
2018-06-24T12:10:28.980Z,2.50
2018-06-24T12:12:56.989Z,3.00
2018-06-24T12:15:25.006Z,2.43
2018-06-24T12:17:53.006Z,2.60
2018-06-24T12:20:21.005Z,1.90
2018-06-24T12:22:48.993Z,2.63
2018-06-24T12:25:17.005Z,2.20
2018-06-24T12:27:45.027Z,2.90
2018-06-24T12:30:13.068Z,2.70
2018-06-24T12:32:41.064Z,2.33
2018-06-24T12:35:09.108Z,2.90
2018-06-24T12:37:37.104Z,3.10
2018-06-24T12:40:05.132Z,2.70
2018-06-24T12:42:33.144Z,4.07
2018-06-24T12:45:01.154Z,3.33
2018-06-24T12:47:29.185Z,3.53
2018-06-24T12:49:57.205Z,2.70
2018-06-24T12:52:25.222Z,3.37
2018-06-24T12:54:53.240Z,3.40
2018-06-24T12:57:21.285Z,3.17
2018-06-24T12:59:49.636Z,4.00
2018-06-24T13:02:17.336Z,3.60
2018-06-24T13:04:45.316Z,5.20
2018-06-24T13:07:13.313Z,4.50
2018-06-24T13:09:41.401Z,3.93
2018-06-24T13:12:09.400Z,3.40
2018-06-24T13:14:37.416Z,3.00
2018-06-24T13:17:05.565Z,3.17
2018-06-24T13:19:34.268Z,2.80
2018-06-24T13:22:02.407Z,2.20
2018-06-24T13:24:30.408Z,3.23
2018-06-24T13:26:59.232Z,2.67
2018-06-24T13:29:27.292Z,2.50
2018-06-24T13:31:55.453Z,2.27
2018-06-24T13:34:24.871Z,1.67
2018-06-24T13:36:53.043Z,2.10
2018-06-24T13:39:21.092Z,1.70
2018-06-24T13:41:49.193Z,2.03
2018-06-24T13:44:17.216Z,3.30
2018-06-24T13:46:45.237Z,3.73
2018-06-24T13:49:13.334Z,4.00
2018-06-24T13:51:41.356Z,4.60
2018-06-24T13:54:09.382Z,4.20
2018-06-24T13:56:37.428Z,3.60
2018-06-24T13:59:05.525Z,3.87
2018-06-24T14:01:33.528Z,3.80
2018-06-24T14:04:01.609Z,7.60
2018-06-24T14:06:29.596Z,4.23
2018-06-24T14:08:57.589Z,4.33
2018-06-24T14:11:25.633Z,4.83
2018-06-24T14:13:53.660Z,4.73
2018-06-24T14:16:21.672Z,4.23
2018-06-24T14:18:49.665Z,5.53
2018-06-24T14:21:17.684Z,5.03
2018-06-24T14:23:45.685Z,2.80
2018-06-24T14:26:13.742Z,2.70
2018-06-24T14:28:42.936Z,5.20
2018-06-24T14:31:10.950Z,3.73
2018-06-24T14:33:38.954Z,2.77
2018-06-24T14:36:06.941Z,3.43
2018-06-24T14:38:34.928Z,4.57
2018-06-24T14:41:02.937Z,4.40
2018-06-24T14:43:30.925Z,2.70
2018-06-24T14:45:58.913Z,3.10
2018-06-24T14:48:26.891Z,2.70
2018-06-24T14:50:54.888Z,3.20
2018-06-24T14:53:22.872Z,2.70
2018-06-24T14:55:50.853Z,2.80
2018-06-24T14:58:18.862Z,3.17
2018-06-24T15:00:46.869Z,2.00
2018-06-24T15:03:14.864Z,2.30
2018-06-24T15:05:42.878Z,2.87
2018-06-24T15:08:10.907Z,2.40
2018-06-24T15:10:38.886Z,2.50
2018-06-24T15:13:06.869Z,2.37
2018-06-24T15:15:34.868Z,3.30
2018-06-24T15:18:02.865Z,2.77
2018-06-24T15:20:31.034Z,2.50
2018-06-24T15:22:59.037Z,2.37
2018-06-24T15:25:27.077Z,3.70
2018-06-24T15:27:55.449Z,3.00
2018-06-24T15:30:23.466Z,2.33
2018-06-24T15:32:51.695Z,2.50
2018-06-24T15:35:19.714Z,2.80
2018-06-24T15:37:47.819Z,6.37
2018-06-24T15:40:15.737Z,2.60
2018-06-24T15:42:43.896Z,3.30
2018-06-24T15:45:11.961Z,4.03
2018-06-24T15:47:40.238Z,3.93
2018-06-24T15:50:08.296Z,3.30
2018-06-24T15:52:36.329Z,4.07
2018-06-24T15:55:04.556Z,3.80
2018-06-24T15:57:32.654Z,5.63
2018-06-24T16:00:00.665Z,3.83
2018-06-24T16:02:28.704Z,3.70
2018-06-24T16:04:56.760Z,3.27
2018-06-24T16:07:24.797Z,4.33
2018-06-24T16:09:52.817Z,3.50
2018-06-24T16:12:20.882Z,6.27
2018-06-24T16:14:48.900Z,4.73
2018-06-24T16:17:16.883Z,4.13
2018-06-24T16:19:44.999Z,7.60
2018-06-24T16:22:13.017Z,6.50
2018-06-24T16:24:40.984Z,6.43
2018-06-24T16:27:08.976Z,4.47
2018-06-24T16:29:36.952Z,6.10
2018-06-24T16:32:05.006Z,3.50
2018-06-24T16:34:33.038Z,4.03
2018-06-24T16:37:01.034Z,5.40
2018-06-24T16:39:29.042Z,3.83
2018-06-24T16:41:57.090Z,3.33
2018-06-24T16:44:25.117Z,3.50
2018-06-24T16:46:53.163Z,6.53
2018-06-24T16:49:21.230Z,5.70
2018-06-24T16:51:49.266Z,3.30
2018-06-24T16:54:17.249Z,3.00
2018-06-24T16:56:45.227Z,5.50
2018-06-24T16:59:14.237Z,3.00
2018-06-24T17:01:42.217Z,2.87
2018-06-24T17:04:10.607Z,2.97
2018-06-24T17:06:38.667Z,2.40
2018-06-24T17:09:08.510Z,4.07
2018-06-24T17:11:36.768Z,3.47
2018-06-24T17:14:04.897Z,3.40
2018-06-24T17:16:32.993Z,3.80
2018-06-24T17:19:00.982Z,2.67
2018-06-24T17:21:28.981Z,2.30
2018-06-24T17:23:56.988Z,2.10
2018-06-24T17:26:25.092Z,2.40
2018-06-24T17:28:53.094Z,3.63
2018-06-24T17:31:21.130Z,2.37
2018-06-24T17:33:49.190Z,2.97
2018-06-24T17:36:17.205Z,3.80
2018-06-24T17:38:45.225Z,2.50
2018-06-24T17:41:13.343Z,4.70
2018-06-24T17:43:41.353Z,3.47
2018-06-24T17:46:09.358Z,2.43
2018-06-24T17:48:37.556Z,5.03
2018-06-24T17:51:05.574Z,2.33
2018-06-24T17:53:33.632Z,6.50
2018-06-24T17:56:01.620Z,5.50
2018-06-24T17:58:29.623Z,3.83
2018-06-24T18:00:57.612Z,5.17
2018-06-24T18:03:25.668Z,5.20
2018-06-24T18:05:53.730Z,4.33
2018-06-24T18:08:21.758Z,4.77
2018-06-24T18:10:49.695Z,3.27
2018-06-24T18:13:17.696Z,3.77
2018-06-24T18:15:45.793Z,4.70
2018-06-24T18:18:13.889Z,3.90
2018-06-24T18:20:41.903Z,2.17
2018-06-24T18:23:09.936Z,2.20
2018-06-24T18:25:37.965Z,6.40
2018-06-24T18:28:06.127Z,6.00
2018-06-24T18:30:34.081Z,1.90
2018-06-24T18:33:02.071Z,3.07
2018-06-24T18:35:30.114Z,3.53
2018-06-24T18:37:58.248Z,4.47
2018-06-24T18:40:26.272Z,4.30
2018-06-24T18:42:54.356Z,9.57
2018-06-24T18:45:22.396Z,8.73
2018-06-24T18:47:50.424Z,2.40
2018-06-24T18:50:18.421Z,3.47
2018-06-24T18:52:46.758Z,7.00
2018-06-24T18:55:14.810Z,3.37
2018-06-24T18:57:43.051Z,4.50
2018-06-24T19:00:11.093Z,4.63
2018-06-24T19:02:39.222Z,7.00
2018-06-24T19:05:07.249Z,7.10
2018-06-24T19:07:35.304Z,3.30
2018-06-24T19:10:03.409Z,7.90
2018-06-24T19:12:31.420Z,4.80
2018-06-24T19:14:59.429Z,10.33
2018-06-24T19:17:27.758Z,3.13
2018-06-24T19:19:55.780Z,2.57
2018-06-24T19:22:23.804Z,5.37
2018-06-24T19:24:51.875Z,6.70
2018-06-24T19:27:19.857Z,7.03
2018-06-24T19:29:47.965Z,15.67
2018-06-24T19:32:15.963Z,3.20
2018-06-24T19:34:43.964Z,5.17
2018-06-24T19:37:11.962Z,4.60
2018-06-24T19:39:40.012Z,8.57
2018-06-24T19:42:08.033Z,7.80
2018-06-24T19:44:36.065Z,4.60
2018-06-24T19:47:04.077Z,3.67
2018-06-24T19:49:32.209Z,5.93
2018-06-24T19:52:01.362Z,5.00
2018-06-24T19:54:29.400Z,6.63
2018-06-24T19:56:57.450Z,6.73
2018-06-24T19:59:26.472Z,4.03
2018-06-24T20:01:54.770Z,5.73
2018-06-24T20:04:22.829Z,4.47
2018-06-24T20:06:50.849Z,7.30
2018-06-24T20:09:18.911Z,4.87
2018-06-24T20:11:46.941Z,4.10
2018-06-24T20:14:14.983Z,5.73
2018-06-24T20:16:42.997Z,13.53
2018-06-24T20:19:11.043Z,5.10
2018-06-24T20:21:39.056Z,3.60
2018-06-24T20:24:07.033Z,7.20
2018-06-24T20:26:35.061Z,5.57
2018-06-24T20:29:03.121Z,5.70
2018-06-24T20:31:31.145Z,4.60
2018-06-24T20:33:59.145Z,6.37
2018-06-24T20:36:27.206Z,5.00
2018-06-24T20:38:55.252Z,6.67
2018-06-24T20:41:23.304Z,8.73
2018-06-24T20:43:51.333Z,8.93
2018-06-24T20:46:19.324Z,6.57
2018-06-24T20:48:47.365Z,6.07
2018-06-24T20:51:15.376Z,6.40
2018-06-24T20:53:43.408Z,4.93
2018-06-24T20:56:11.606Z,7.20
2018-06-24T20:58:39.549Z,15.37
2018-06-24T21:01:07.569Z,16.27
2018-06-24T21:03:35.590Z,12.00
2018-06-24T21:06:04.153Z,9.77
2018-06-24T21:08:32.421Z,7.23
2018-06-24T21:11:00.442Z,8.63
2018-06-24T21:13:28.577Z,11.03
2018-06-24T21:15:56.552Z,9.27
2018-06-24T21:18:24.538Z,8.60
2018-06-24T21:20:52.556Z,17.93
2018-06-24T21:23:20.536Z,12.87
2018-06-24T21:25:49.284Z,12.63
2018-06-24T21:28:17.307Z,8.27
2018-06-24T21:30:45.304Z,9.57
2018-06-24T21:33:13.549Z,12.00
2018-06-24T21:35:41.532Z,5.77
2018-06-24T21:38:09.521Z,8.40
2018-06-24T21:43:09.173Z,5.37
2018-06-24T21:45:37.189Z,12.83
2018-06-24T21:48:05.817Z,6.73
2018-06-24T21:50:33.840Z,14.67
2018-06-24T21:53:01.810Z,9.00
2018-06-24T21:55:30.033Z,12.07
2018-06-24T21:57:58.092Z,15.00
2018-06-24T22:00:26.138Z,11.33
2018-06-24T22:02:54.137Z,12.00
2018-06-24T22:05:22.158Z,17.20
2018-06-24T22:07:50.313Z,7.30
2018-06-24T22:10:18.437Z,10.40
2018-06-24T22:12:46.448Z,14.80
2018-06-24T22:15:14.507Z,11.00
2018-06-24T22:17:42.480Z,13.50
2018-06-24T22:20:10.568Z,12.63
2018-06-24T22:22:38.593Z,16.63
2018-06-24T22:25:06.600Z,15.70
2018-06-24T22:27:34.732Z,10.77
2018-06-24T22:30:02.805Z,12.13
2018-06-24T22:32:30.830Z,13.00
2018-06-24T22:34:58.969Z,14.83
2018-06-24T22:37:26.990Z,13.80
2018-06-24T22:39:55.000Z,11.43
2018-06-24T22:42:23.022Z,7.80
2018-06-24T22:44:51.073Z,16.70
2018-06-24T22:47:19.057Z,10.00
2018-06-24T22:49:47.149Z,13.30
2018-06-24T22:52:15.281Z,11.77
2018-06-24T22:54:43.261Z,14.40
2018-06-24T22:57:11.264Z,13.37
2018-06-24T22:59:50.829Z,13.83
2018-06-24T23:02:18.835Z,13.93
2018-06-24T23:04:46.829Z,13.13
2018-06-24T23:07:14.804Z,10.67
2018-06-24T23:09:42.781Z,14.43
2018-06-24T23:12:10.777Z,16.47
2018-06-24T23:14:38.757Z,7.73
2018-06-24T23:17:06.873Z,8.30
2018-06-24T23:19:34.863Z,11.93
2018-06-24T23:22:02.860Z,11.63
2018-06-24T23:24:30.893Z,11.70
2018-06-24T23:26:58.898Z,11.13
2018-06-24T23:29:26.924Z,8.10
2018-06-24T23:31:54.937Z,16.43
2018-06-24T23:34:22.934Z,14.03
2018-06-24T23:36:50.925Z,12.30
2018-06-24T23:39:18.912Z,13.07
2018-06-24T23:41:46.928Z,15.87
2018-06-24T23:44:14.901Z,14.00
2018-06-24T23:46:42.886Z,9.47
2018-06-24T23:49:10.888Z,11.70
2018-06-24T23:51:38.876Z,12.80
2018-06-24T23:54:06.877Z,12.27
2018-06-24T23:56:34.960Z,10.23
2018-06-24T23:59:02.937Z,16.13
